This is the latest recevied weather packets stored in our database for station/object KD8DNO-13. If no packets are shown the sender has not sent any weather packets the latest 1 day(s).
| Time | Temp. | Humidity | Pressure | Rain* | Wind** | Luminosity | Snow |
|---|---|---|---|---|---|---|---|
| 1778187782 | 16.11° C | 39% | 1013.5 hPa | 0 mm | - | - | - |
| 1778187482 | 16.11° C | 39% | 1013.5 hPa | 0 mm | - | - | - |
| 1778187182 | 15.56° C | 39% | 1013.5 hPa | 0 mm | - | - | - |
| 1778186882 | 15.56° C | 38% | 1013.2 hPa | 0 mm | - | - | - |
| 1778185082 | 16.11° C | 43% | 1013.5 hPa | 0 mm | - | - | - |
| 1778184182 | 15.56° C | 40% | 1013.2 hPa | 0 mm | - | - | - |
| 1778182082 | 15.56° C | 46% | 1013.5 hPa | 0 mm | - | - | - |
| 1778180882 | 15° C | 43% | 1013.5 hPa | 0 mm | - | - | - |
| 1778179682 | 15.56° C | 43% | 1013.8 hPa | 0 mm | - | - | - |
| 1778176682 | 14.44° C | 41% | 1013.8 hPa | 0 mm | - | - | - |
| 1778176087 | 14.44° C | 42% | 1014.2 hPa | 0 mm | - | - | - |
| 1778169782 | 12.78° C | 43% | 1014.2 hPa | 0 mm | - | - | - |
| 1778167382 | 12.78° C | 44% | 1014.2 hPa | 0 mm | - | - | - |
| 1778166482 | 12.22° C | 46% | 1014.2 hPa | 0 mm | - | - | - |
| 1778161083 | 9.44° C | 61% | 1014.9 hPa | 0 mm | - | - | - |
| 1778154783 | 6.67° C | 79% | 1014.9 hPa | 0 mm | - | - | - |
| 1778152083 | 4.44° C | 91% | 1014.2 hPa | 0 mm | - | - | - |
| 1778149083 | 4.44° C | 90% | 1014.2 hPa | 0 mm | - | - | - |
| 1778148183 | 4.44° C | 90% | 1014.2 hPa | 0 mm | - | - | - |
| 1778147283 | 5° C | 88% | 1014.2 hPa | 0 mm | - | - | - |
| 1778146683 | 5° C | 87% | 1014.2 hPa | 0 mm | - | - | - |
| 1778146383 | 5° C | 87% | 1014.2 hPa | 0 mm | - | - | - |
| 1778145483 | 5° C | 86% | 1014.2 hPa | 0 mm | - | - | - |
| 1778144883 | 5° C | 85% | 1014.2 hPa | 0 mm | - | - | - |
| 1778144583 | 5° C | 85% | 1014.2 hPa | 0 mm | - | - | - |
* Rain latest hour (hover to see other rain measurements)
** Current wind speed in m/s (hover to see current wind gust speed)